Time;durP1;ratioP1;P1;durP2;ratioP2;P2;SDS_P1;SDS_P2;PMS_P1;PMS_P2;Temp;Humidity;BMP_temperature;BMP_pressure;BME280_temperature;BME280_humidity;BME280_pressure;Samples;Min_cycle;Max_cycle;Signal;HPM_P1;HPM_P2
2022/11/11 00:00:59;;;;;;;10.40;5.00;;;;;;;11.73;82.19;102463.25;4993133;28;20061;-60
2022/11/11 00:03:45;;;;;;;13.57;5.80;;;;;;;11.47;82.72;102454.16;4996271;28;20042;-59
2022/11/11 00:06:31;;;;;;;14.18;5.20;;;;;;;11.59;83.13;102448.31;4980555;28;20146;-58
2022/11/11 00:09:17;;;;;;;11.88;5.22;;;;;;;11.70;82.73;102450.81;4995752;28;20054;-58
2022/11/11 00:12:03;;;;;;;12.05;4.90;;;;;;;11.69;82.35;102451.09;4995620;28;20046;-59
2022/11/11 00:14:49;;;;;;;13.93;5.22;;;;;;;11.70;82.07;102448.06;4988097;28;20053;-58
2022/11/11 00:26:48;;;;;;;13.75;5.70;;;;;;;11.38;84.14;102445.56;4977346;28;20069;-58
2022/11/11 00:29:34;;;;;;;13.75;5.43;;;;;;;11.61;83.63;102437.84;4997059;28;20069;-59
2022/11/11 00:32:23;;;;;;;10.45;4.97;;;;;;;11.61;83.51;102438.66;4994527;28;20533;-58
2022/11/11 00:38:44;;;;;;;14.85;6.10;;;;;;;11.62;83.69;102440.31;4995858;28;20042;-59
2022/11/11 00:41:22;;;;;;;15.10;5.53;;;;;;;11.35;84.22;102439.78;4994795;28;20077;-60
2022/11/11 00:44:08;;;;;;;18.67;6.38;;;;;;;11.34;85.05;102440.91;4988498;28;20038;-60
2022/11/11 00:53:09;;;;;;;14.27;6.18;;;;;;;11.03;87.21;102486.13;4995671;28;20391;-60
2022/11/11 00:55:55;;;;;;;13.25;5.80;;;;;;;11.27;86.78;102476.19;5011362;28;20585;-58
2022/11/11 00:58:41;;;;;;;17.00;6.60;;;;;;;11.32;86.36;102476.19;5014510;28;20046;-57
2022/11/11 01:01:27;;;;;;;16.25;6.13;;;;;;;11.22;86.60;102482.56;5014699;28;20045;-58
2022/11/11 01:04:13;;;;;;;13.75;6.22;;;;;;;11.28;86.78;102480.59;5014312;28;20045;-56
2022/11/11 01:06:58;;;;;;;14.90;6.13;;;;;;;11.31;86.70;102474.56;5012511;28;20532;-59
2022/11/11 01:09:44;;;;;;;17.65;6.72;;;;;;;11.28;86.34;102470.41;4997070;28;20061;-59
2022/11/11 01:12:30;;;;;;;15.40;6.20;;;;;;;11.34;85.90;102472.06;4997804;28;20679;-58
2022/11/11 01:15:16;;;;;;;12.82;6.18;;;;;;;11.42;85.94;102467.91;4999846;28;20466;-59
2022/11/11 01:18:02;;;;;;;18.33;5.90;;;;;;;11.57;85.26;102465.16;5014262;28;20054;-57
2022/11/11 01:20:57;;;;;;;14.00;5.95;;;;;;;11.35;84.96;102478.41;5014269;28;20049;-59
2022/11/11 01:23:45;;;;;;;14.27;6.30;;;;;;;11.40;85.27;102469.31;5014027;28;20050;-59
2022/11/11 01:26:31;;;;;;;15.25;6.25;;;;;;;11.35;85.09;102464.59;4996118;28;20065;-59
2022/11/11 01:29:17;;;;;;;8.80;5.15;;;;;;;11.16;85.07;102458.81;5000003;28;20085;-58
2022/11/11 01:32:03;;;;;;;12.60;5.90;;;;;;;11.35;85.96;102459.09;5014491;28;20042;-59
2022/11/11 01:34:49;;;;;;;9.43;5.28;;;;;;;11.49;84.72;102457.44;4999775;28;20401;-60
2022/11/11 01:37:35;;;;;;;11.65;5.75;;;;;;;11.53;84.10;102455.78;5013842;28;20062;-58
2022/11/11 01:40:21;;;;;;;8.27;5.20;;;;;;;11.62;83.99;102458.81;4999526;28;20054;-59
2022/11/11 01:43:06;;;;;;;10.30;5.47;;;;;;;11.67;83.17;102464.34;5016075;28;20042;-59
2022/11/11 01:45:58;;;;;;;9.75;5.22;;;;;;;11.60;83.40;102464.59;5003137;28;20042;-59
2022/11/11 01:51:58;;;;;;;11.23;5.63;;;;;;;11.53;83.63;102468.75;5017909;28;20054;-59
2022/11/11 01:55:08;;;;;;;14.35;5.70;;;;;;;11.73;83.09;102477.03;5018210;28;20050;-60
2022/11/11 01:57:59;;;;;;;9.35;5.82;;;;;;;11.52;82.68;102483.66;5007728;28;20050;-55
2022/11/11 02:00:45;;;;;;;16.20;5.97;;;;;;;11.50;83.10;102497.72;5002590;28;20069;-60
2022/11/11 02:03:34;;;;;;;13.30;5.88;;;;;;;11.41;83.28;102491.09;5017988;28;20050;-60
2022/11/11 02:06:20;;;;;;;12.18;5.88;;;;;;;11.38;83.27;102490.81;5002894;28;20045;-60
2022/11/11 02:09:07;;;;;;;12.73;7.13;;;;;;;11.38;83.28;102480.63;5003617;28;20045;-58
2022/11/11 02:15:00;;;;;;;12.20;6.15;;;;;;;11.30;83.81;102487.50;4997372;28;20042;-58
2022/11/11 02:17:47;;;;;;;11.90;6.07;;;;;;;11.52;83.14;102481.72;4997800;28;20054;-59
2022/11/11 02:20:36;;;;;;;13.52;6.65;;;;;;;11.59;82.88;102474.00;4980335;28;20085;-56
2022/11/11 02:23:50;;;;;;;12.32;6.43;;;;;;;11.51;82.63;102468.19;4998240;28;20050;-59
2022/11/11 02:26:37;;;;;;;13.63;6.38;;;;;;;11.57;82.65;102467.09;4982604;28;20058;-59
2022/11/11 02:29:23;;;;;;;13.65;6.90;;;;;;;11.45;82.76;102467.38;4998232;28;20046;-56
2022/11/11 02:32:09;;;;;;;12.65;6.90;;;;;;;11.42;83.70;102469.88;4987051;28;20055;-58
2022/11/11 02:34:55;;;;;;;17.95;6.97;;;;;;;11.33;83.56;102464.88;4978491;28;20046;-58
2022/11/11 02:37:44;;;;;;;15.50;6.95;;;;;;;11.34;83.79;102466.56;4989722;28;20051;-59
2022/11/11 02:40:37;;;;;;;12.25;6.80;;;;;;;11.30;84.00;102461.84;4984860;28;20051;-60
2022/11/11 02:43:22;;;;;;;13.88;7.00;;;;;;;11.38;83.56;102462.13;4997978;28;20050;-58
2022/11/11 02:46:09;;;;;;;11.25;6.72;;;;;;;11.51;82.93;102471.78;4991551;28;20043;-59
2022/11/11 02:48:55;;;;;;;18.35;7.10;;;;;;;11.47;82.38;102470.69;4990657;28;20059;-57
2022/11/11 02:51:41;;;;;;;12.85;6.57;;;;;;;11.63;82.22;102469.56;4987952;28;20050;-59
2022/11/11 02:54:27;;;;;;;12.30;6.55;;;;;;;11.44;82.68;102467.66;4977408;28;20051;-58
2022/11/11 02:57:14;;;;;;;14.02;6.88;;;;;;;11.36;82.78;102469.03;4996806;28;20050;-59
2022/11/11 03:00:01;;;;;;;14.70;8.57;;;;;;;11.24;83.60;102472.06;4988288;28;20054;-59
2022/11/11 03:02:47;;;;;;;14.68;8.02;;;;;;;11.21;84.11;102475.38;4976758;28;20538;-56
2022/11/11 03:05:33;;;;;;;14.93;8.23;;;;;;;11.37;83.42;102464.34;4980521;28;20042;-60
2022/11/11 03:08:19;;;;;;;13.90;8.57;;;;;;;11.14;84.01;102472.06;4997166;28;20050;-59
2022/11/11 03:11:05;;;;;;;17.17;8.32;;;;;;;11.08;85.30;102469.56;4998354;28;20489;-58
2022/11/11 03:14:01;;;;;;;14.65;8.35;;;;;;;11.18;84.91;102458.53;5002330;28;20046;-58
2022/11/11 03:19:52;;;;;;;15.38;8.85;;;;;;;11.20;85.03;102448.91;4997129;28;20126;-58
2022/11/11 03:22:38;;;;;;;18.05;8.48;;;;;;;11.31;84.38;102450.53;4996112;28;20062;-58
2022/11/11 03:25:45;;;;;;;16.80;8.77;;;;;;;11.22;84.30;102452.22;4991102;28;20054;-61
2022/11/11 03:28:31;;;;;;;14.32;8.48;;;;;;;11.11;84.57;102447.78;4996724;28;20053;-56
2022/11/11 03:31:16;;;;;;;17.48;7.82;;;;;;;11.10;84.41;102454.41;4996751;28;20490;-63
2022/11/11 03:34:17;;;;;;;14.68;7.88;;;;;;;11.31;84.31;102456.06;4982309;28;20050;-60
2022/11/11 03:40:13;;;;;;;15.45;8.25;;;;;;;10.88;84.51;102467.59;4977512;28;20069;-59
2022/11/11 03:42:59;;;;;;;14.52;7.47;;;;;;;11.09;84.38;102465.69;4982084;28;20050;-60
2022/11/11 03:45:55;;;;;;;14.43;8.45;;;;;;;11.03;84.05;102462.13;4984959;28;20039;-60
2022/11/11 03:48:40;;;;;;;14.68;8.27;;;;;;;11.08;84.34;102450.28;4969770;28;20051;-60
2022/11/11 03:51:26;;;;;;;16.00;8.25;;;;;;;11.32;83.48;102459.66;4973657;28;20050;-60
2022/11/11 03:54:12;;;;;;;14.63;8.02;;;;;;;11.40;83.30;102461.88;4981300;28;20069;-59
2022/11/11 04:00:05;;;;;;;14.63;8.18;;;;;;;11.12;83.86;102463.22;4988493;28;20042;-59
2022/11/11 04:12:27;;;;;;;18.25;8.65;;;;;;;11.04;84.54;102479.47;4995258;28;20383;-59
2022/11/11 04:21:41;;;;;;;16.52;8.90;;;;;;;10.95;83.81;102495.75;4994661;28;20470;-62
2022/11/11 04:21:42;;;;;;;12.35;7.90;;;;;;;10.80;85.09;102495.72;4995673;28;20528;-57
2022/11/11 04:27:32;;;;;;;15.57;8.23;;;;;;;10.87;84.54;102496.28;4995510;28;20050;-59
2022/11/11 04:30:18;;;;;;;15.60;8.57;;;;;;;10.89;84.36;102484.97;4994407;28;20046;-60
2022/11/11 04:33:03;;;;;;;14.20;7.80;;;;;;;11.08;83.72;102486.13;4995303;28;20073;-57
2022/11/11 04:35:49;;;;;;;16.80;7.65;;;;;;;11.27;82.98;102479.81;4995336;28;20041;-59
2022/11/11 04:41:40;;;;;;;15.65;7.07;;;;;;;11.30;82.63;102465.44;4995446;28;20061;-59
2022/11/11 04:47:56;;;;;;;13.75;7.32;;;;;;;11.41;81.33;102477.31;4989552;28;20046;-60
2022/11/11 04:50:43;;;;;;;19.85;8.23;;;;;;;11.26;82.26;102480.88;4995080;28;20054;-62
2022/11/11 04:53:29;;;;;;;17.90;8.80;;;;;;;11.10;83.19;102486.69;4983505;28;20065;-58
2022/11/11 04:59:20;;;;;;;17.50;8.88;;;;;;;11.02;84.63;102484.44;4990315;28;20066;-58
2022/11/11 05:05:10;;;;;;;16.10;8.95;;;;;;;10.85;85.46;102479.19;5014973;28;20046;-60
2022/11/11 05:11:01;;;;;;;15.65;8.63;;;;;;;10.91;85.96;102472.56;5005807;28;20061;-59
2022/11/11 05:23:02;;;;;;;14.45;8.73;;;;;;;11.10;84.87;102476.47;4981146;28;20410;-58
2022/11/11 05:25:49;;;;;;;17.17;8.25;;;;;;;11.10;84.49;102465.44;4984057;28;20062;-58
2022/11/11 05:28:34;;;;;;;12.38;7.97;;;;;;;11.26;84.38;102460.78;4994572;28;20059;-60
2022/11/11 05:31:21;;;;;;;17.00;8.60;;;;;;;11.15;83.99;102468.22;4990938;28;20046;-58
2022/11/11 05:34:06;;;;;;;11.98;7.20;;;;;;;11.25;83.82;102470.97;4999010;28;20053;-59
2022/11/11 05:36:52;;;;;;;15.88;8.57;;;;;;;11.26;83.42;102480.09;4984047;28;20050;-59
2022/11/11 05:39:38;;;;;;;11.95;7.85;;;;;;;11.20;82.88;102482.00;5000661;28;20046;-57
2022/11/11 05:42:24;;;;;;;17.10;8.52;;;;;;;11.04;83.30;102480.31;5017201;28;20053;-58
2022/11/11 05:45:10;;;;;;;12.98;8.18;;;;;;;10.99;83.92;102476.72;4998295;28;20049;-59
2022/11/11 05:48:00;;;;;;;15.48;9.02;;;;;;;11.09;83.77;102474.81;4979111;28;20047;-60
2022/11/11 05:50:46;;;;;;;14.80;8.63;;;;;;;10.98;84.29;102472.31;4982420;28;20485;-60
2022/11/11 05:53:32;;;;;;;13.23;9.02;;;;;;;10.88;84.50;102470.38;4992384;28;20062;-59
2022/11/11 05:56:18;;;;;;;16.30;8.82;;;;;;;11.01;84.32;102471.78;4998281;28;20047;-59
2022/11/11 05:59:05;;;;;;;17.77;8.85;;;;;;;11.03;84.21;102469.56;4995591;28;20054;-59
2022/11/11 06:01:51;;;;;;;15.48;8.55;;;;;;;11.03;84.07;102473.16;4988954;28;20050;-58
2022/11/11 06:04:37;;;;;;;18.67;9.30;;;;;;;11.30;82.70;102472.88;4983940;28;20054;-58
2022/11/11 06:07:23;;;;;;;16.00;10.07;;;;;;;11.21;82.62;102467.09;4997493;28;20497;-58
2022/11/11 06:13:14;;;;;;;15.13;9.18;;;;;;;11.03;82.35;102475.09;4996812;28;20042;-58
2022/11/11 06:16:01;;;;;;;14.32;7.97;;;;;;;11.10;81.94;102484.75;4978845;28;20039;-58
2022/11/11 06:18:48;;;;;;;15.60;8.55;;;;;;;11.00;82.31;102484.72;4998085;28;20046;-59
2022/11/11 06:21:55;;;;;;;14.32;9.00;;;;;;;11.00;82.57;102484.72;4996559;28;20050;-60
2022/11/11 06:24:39;;;;;;;14.00;8.20;;;;;;;10.74;83.13;102484.97;4998698;28;20046;-59
2022/11/11 06:27:24;;;;;;;14.48;8.02;;;;;;;10.80;83.64;102494.88;4983264;28;20066;-58
2022/11/11 06:30:10;;;;;;;14.73;8.52;;;;;;;10.86;83.47;102494.63;4995208;28;20050;-60
2022/11/11 06:33:16;;;;;;;16.60;8.48;;;;;;;10.75;84.10;102501.22;4987379;28;20046;-58
2022/11/11 06:36:04;;;;;;;14.35;7.95;;;;;;;10.71;84.40;102499.25;4996770;28;20038;-57
2022/11/11 06:38:50;;;;;;;12.15;7.88;;;;;;;10.76;83.99;102496.50;4979992;28;20416;-55
2022/11/11 06:41:36;;;;;;;14.25;7.60;;;;;;;10.84;84.13;102501.50;4997974;28;20387;-58
2022/11/11 06:44:21;;;;;;;14.27;6.80;;;;;;;10.97;83.35;102504.56;4996851;28;20061;-58
2022/11/11 06:47:07;;;;;;;9.45;6.15;;;;;;;10.98;83.11;102506.22;4979229;28;20057;-59
2022/11/11 06:49:53;;;;;;;14.35;6.50;;;;;;;11.09;82.82;102510.66;4996885;28;20050;-58
2022/11/11 06:52:38;;;;;;;11.23;5.68;;;;;;;10.87;82.84;102517.50;4994578;28;20057;-60
2022/11/11 06:55:24;;;;;;;11.05;6.07;;;;;;;10.84;83.69;102524.41;5015384;28;20050;-57
2022/11/11 06:58:15;;;;;;;10.43;5.22;;;;;;;10.82;83.72;102525.75;5016551;28;20084;-60
2022/11/11 07:01:05;;;;;;;11.25;5.82;;;;;;;10.90;83.93;102530.75;5015392;28;20053;-59
2022/11/11 07:03:51;;;;;;;11.13;5.43;;;;;;;10.98;83.00;102521.97;5010941;28;20041;-59
2022/11/11 07:06:37;;;;;;;12.70;5.72;;;;;;;10.92;83.71;102528.53;5018044;28;20042;-59
2022/11/11 07:09:24;;;;;;;10.90;5.63;;;;;;;11.12;83.11;102528.59;4997155;28;20057;-59
2022/11/11 07:12:10;;;;;;;10.68;5.55;;;;;;;11.07;83.18;102526.66;4994004;28;20524;-60
2022/11/11 07:14:56;;;;;;;12.70;8.10;;;;;;;11.15;83.16;102526.13;5016625;28;20492;-59
2022/11/11 07:17:42;;;;;;;13.43;6.13;;;;;;;11.05;83.45;102523.31;5015695;28;20050;-61
2022/11/11 07:20:29;;;;;;;11.00;6.60;;;;;;;10.99;83.92;102518.91;5015963;28;20046;-61
2022/11/11 07:23:16;;;;;;;16.33;8.50;;;;;;;10.93;84.21;102508.97;5016451;28;20045;-59
2022/11/11 07:26:02;;;;;;;22.27;12.45;;;;;;;11.06;84.07;102511.22;5016287;28;20037;-60
2022/11/11 07:28:50;;;;;;;22.65;8.23;;;;;;;10.97;84.38;102510.09;5016561;28;20061;-59
2022/11/11 07:31:35;;;;;;;21.25;9.30;;;;;;;11.02;84.42;102512.84;5015224;28;20070;-61
2022/11/11 07:34:21;;;;;;;10.15;6.50;;;;;;;11.01;84.57;102516.72;5001407;28;20054;-58
2022/11/11 07:37:07;;;;;;;13.10;5.90;;;;;;;11.16;84.18;102510.38;4997394;28;20083;-60
2022/11/11 07:39:53;;;;;;;10.45;6.72;;;;;;;11.20;83.93;102509.59;5015596;28;20406;-60
2022/11/11 07:42:40;;;;;;;11.93;7.13;;;;;;;10.87;85.12;102506.47;5016258;28;20057;-59
2022/11/11 07:45:26;;;;;;;14.40;6.93;;;;;;;10.84;85.41;102505.09;5015911;28;20524;-61
2022/11/11 07:48:12;;;;;;;12.23;7.45;;;;;;;10.83;86.19;102502.59;5001341;28;20371;-60
2022/11/11 07:50:58;;;;;;;13.48;7.60;;;;;;;10.72;86.38;102509.19;5000878;28;20041;-62
2022/11/11 07:53:44;;;;;;;12.90;7.45;;;;;;;11.00;86.15;102497.69;5000890;28;20062;-60
2022/11/11 07:56:30;;;;;;;14.82;7.35;;;;;;;11.27;85.09;102507.38;4984269;28;20050;-59
2022/11/11 07:59:15;;;;;;;14.02;8.00;;;;;;;11.14;84.71;102507.09;5015325;28;20527;-61
2022/11/11 08:02:01;;;;;;;14.38;8.15;;;;;;;11.22;84.43;102520.34;5001006;28;20073;-58
2022/11/11 08:04:47;;;;;;;18.17;9.18;;;;;;;11.32;83.82;102515.66;5013055;28;20042;-59
2022/11/11 08:07:41;;;;;;;20.17;9.18;;;;;;;11.24;83.22;102518.94;4998956;28;20041;-58
2022/11/11 08:10:27;;;;;;;14.85;8.45;;;;;;;11.29;83.36;102518.16;5014680;28;20042;-59
2022/11/11 08:16:17;;;;;;;13.38;7.18;;;;;;;11.31;83.18;102518.69;5013731;28;20046;-58
2022/11/11 08:19:03;;;;;;;14.60;7.30;;;;;;;11.29;83.03;102516.22;5014908;28;20490;-62
2022/11/11 08:21:50;;;;;;;11.30;6.78;;;;;;;11.27;83.45;102515.66;5011796;28;20061;-57
2022/11/11 08:24:36;;;;;;;15.20;7.28;;;;;;;11.33;83.39;102513.75;5011745;28;20061;-61
2022/11/11 08:27:42;;;;;;;12.88;7.13;;;;;;;11.36;83.02;102518.69;4990997;28;20046;-59
2022/11/11 08:30:28;;;;;;;13.23;6.95;;;;;;;11.38;83.05;102522.81;5013748;28;20057;-59
2022/11/11 08:33:13;;;;;;;18.85;7.47;;;;;;;11.64;82.51;102506.28;5014311;28;20367;-61
2022/11/11 08:36:19;;;;;;;11.02;6.78;;;;;;;11.58;82.04;102518.41;5013767;28;20049;-59
2022/11/11 08:39:06;;;;;;;14.10;7.30;;;;;;;11.47;82.38;102525.06;5006348;28;20053;-58
2022/11/11 08:41:52;;;;;;;12.13;7.35;;;;;;;11.40;82.95;102522.56;5010780;28;20050;-58
2022/11/11 08:44:38;;;;;;;13.35;6.80;;;;;;;11.58;82.24;102526.69;4999445;28;20046;-60
2022/11/11 08:47:24;;;;;;;10.80;7.05;;;;;;;11.40;82.35;102522.56;5013096;28;20065;-60
2022/11/11 08:50:10;;;;;;;13.52;6.80;;;;;;;11.38;82.97;102524.78;5013743;28;20045;-60
2022/11/11 08:52:56;;;;;;;15.00;7.65;;;;;;;11.15;83.75;102528.03;4994981;28;20050;-60
2022/11/11 08:55:43;;;;;;;12.48;7.63;;;;;;;11.31;84.14;102536.06;5006459;28;20053;-62
2022/11/11 08:58:29;;;;;;;12.98;7.07;;;;;;;11.44;83.53;102539.41;5010979;28;20058;-61
2022/11/11 09:01:15;;;;;;;12.15;8.10;;;;;;;11.32;84.00;102546.00;4996070;28;20053;-59
2022/11/11 09:04:01;;;;;;;13.32;8.73;;;;;;;11.79;86.30;102543.00;4996811;28;20049;-61
2022/11/11 09:07:08;;;;;;;12.88;6.97;;;;;;;12.05;83.09;102547.41;5009423;28;20053;-61
2022/11/11 09:09:55;;;;;;;9.35;7.20;;;;;;;12.16;82.63;102551.81;5008112;28;20061;-60
2022/11/11 09:12:41;;;;;;;12.75;6.78;;;;;;;12.01;82.92;102549.06;5008794;28;20050;-59
2022/11/11 09:15:27;;;;;;;10.38;6.65;;;;;;;12.14;83.01;102542.13;5009258;28;20054;-60
2022/11/11 09:18:13;;;;;;;10.75;6.75;;;;;;;12.11;80.75;102534.41;5005202;28;20050;-61
2022/11/11 09:20:59;;;;;;;17.48;7.03;;;;;;;12.40;84.01;102540.97;5009408;28;20041;-63
2022/11/11 09:23:45;;;;;;;12.10;7.88;;;;;;;12.37;80.72;102539.59;4994816;28;20548;-60
2022/11/11 09:26:31;;;;;;;14.70;7.70;;;;;;;12.11;80.23;102551.00;5008661;28;20057;-58
2022/11/11 09:29:17;;;;;;;14.32;7.85;;;;;;;12.24;79.36;102558.69;4993576;28;20061;-60
2022/11/11 09:32:04;;;;;;;15.20;7.85;;;;;;;12.35;79.48;102555.63;5009066;28;20048;-60
2022/11/11 09:34:50;;;;;;;12.40;7.38;;;;;;;12.13;79.28;102551.53;5011904;28;20068;-60
2022/11/11 09:37:35;;;;;;;12.18;7.15;;;;;;;11.91;80.52;102548.25;5008762;28;20049;-63
2022/11/11 09:40:24;;;;;;;12.70;6.68;;;;;;;11.77;80.72;102556.25;5008506;28;20069;-59
2022/11/11 09:43:22;;;;;;;16.50;7.00;;;;;;;11.64;81.80;102561.47;5010519;28;20050;-62
2022/11/11 09:46:17;;;;;;;13.90;6.82;;;;;;;11.52;82.41;102549.88;5008921;28;20042;-61
2022/11/11 09:49:21;;;;;;;15.90;6.90;;;;;;;11.48;82.74;102560.66;5009458;28;20049;-60
2022/11/11 09:52:07;;;;;;;10.20;6.35;;;;;;;11.62;82.19;102558.16;5008387;28;20064;-60
2022/11/11 09:55:02;;;;;;;10.35;6.32;;;;;;;11.66;82.17;102564.84;5005897;28;20065;-59
2022/11/11 09:57:57;;;;;;;12.00;6.75;;;;;;;11.57;82.24;102563.69;5006743;28;20505;-61
2022/11/11 10:00:46;;;;;;;16.50;6.93;;;;;;;11.49;82.36;102569.75;5006707;28;20052;-60
2022/11/11 10:03:37;;;;;;;12.38;7.50;;;;;;;11.44;82.69;102575.28;5006582;28;20050;-60
2022/11/11 10:06:27;;;;;;;13.20;7.72;;;;;;;11.43;82.58;102570.84;5008643;28;20050;-61
2022/11/11 10:09:24;;;;;;;11.48;7.07;;;;;;;11.31;83.50;102576.63;5009617;28;20053;-60
2022/11/11 10:12:12;;;;;;;14.35;8.00;;;;;;;11.41;83.43;102579.41;4997836;28;20069;-59
2022/11/11 10:15:00;;;;;;;25.00;7.85;;;;;;;11.43;82.47;102562.56;5013188;28;20046;-59
2022/11/11 10:18:04;;;;;;;14.45;7.28;;;;;;;11.23;83.04;102575.22;5010788;28;20387;-59
2022/11/11 10:20:54;;;;;;;10.02;7.03;;;;;;;11.19;83.40;102567.78;5007566;28;20041;-60
2022/11/11 10:23:44;;;;;;;12.63;6.47;;;;;;;11.24;83.48;102576.88;4996964;28;20046;-59
2022/11/11 10:26:38;;;;;;;10.80;6.45;;;;;;;11.30;82.98;102578.56;4995919;28;20045;-61
2022/11/11 10:29:26;;;;;;;14.65;6.10;;;;;;;11.29;83.23;102574.16;5011012;28;20063;-61
2022/11/11 10:32:21;;;;;;;12.77;6.30;;;;;;;11.56;82.78;102573.88;4995531;28;20462;-60
2022/11/11 10:35:21;;;;;;;10.10;5.97;;;;;;;11.58;81.88;102565.31;5011561;28;20054;-62
2022/11/11 10:38:10;;;;;;;;;;;;;;;11.63;81.52;102559.84;5010894;28;20057;-62
2022/11/11 10:41:03;;;;;;;11.95;6.38;;;;;;;11.65;81.68;102561.22;5009460;28;20440;-59
2022/11/11 10:43:49;;;;;;;12.20;6.40;;;;;;;11.79;80.73;102559.56;4992908;28;20046;-60
2022/11/11 10:46:40;;;;;;;13.23;6.43;;;;;;;11.65;80.81;102560.41;5011284;28;20061;-59
2022/11/11 10:49:30;;;;;;;13.63;6.53;;;;;;;11.76;80.70;102570.34;4994746;28;20514;-59
2022/11/11 10:52:20;;;;;;;12.95;6.05;;;;;;;11.86;80.31;102554.59;5007714;28;20045;-58
2022/11/11 10:55:06;;;;;;;16.48;8.98;;;;;;;12.19;79.72;102555.94;4995841;28;20046;-59
2022/11/11 10:58:14;;;;;;;23.30;13.85;;;;;;;12.25;79.06;102561.19;5009745;28;20366;-56
2022/11/11 11:01:02;;;;;;;14.38;6.63;;;;;;;12.35;78.51;102563.91;4996346;28;20065;-57
2022/11/11 11:03:54;;;;;;;21.60;11.10;;;;;;;12.38;78.11;102574.41;5010654;28;20050;-59
2022/11/11 11:06:43;;;;;;;14.95;6.72;;;;;;;12.58;77.27;102565.22;4983050;28;20048;-58
2022/11/11 11:09:37;;;;;;;12.30;5.73;;;;;;;12.70;76.21;102562.13;5004526;28;20050;-59
2022/11/11 11:12:23;;;;;;;9.65;4.75;;;;;;;12.44;76.45;102553.94;5008544;28;20304;-59
2022/11/11 11:15:22;;;;;;;9.30;4.65;;;;;;;12.62;77.98;102552.50;5007062;28;20797;-60
2022/11/11 11:18:13;;;;;;;12.90;5.43;;;;;;;12.70;76.56;102551.91;4998271;28;20053;-58
2022/11/11 11:21:01;;;;;;;10.05;4.63;;;;;;;12.72;76.41;102552.47;5010543;28;20059;-59
2022/11/11 11:23:47;;;;;;;9.82;5.18;;;;;;;12.56;76.03;102547.25;5014656;28;20347;-60
2022/11/11 11:26:47;;;;;;;12.15;5.22;;;;;;;12.51;75.69;102541.75;5000777;28;20057;-57
2022/11/11 11:29:34;;;;;;;13.60;5.57;;;;;;;12.52;76.71;102537.91;5011332;28;20054;-57
2022/11/11 11:32:26;;;;;;;12.88;4.88;;;;;;;12.46;76.51;102537.06;5001833;28;20061;-56
2022/11/11 11:35:42;;;;;;;10.43;4.93;;;;;;;12.58;76.85;102532.06;5013828;28;20141;-58
2022/11/11 11:38:45;;;;;;;12.23;5.57;;;;;;;12.64;76.04;102533.66;5002473;28;20053;-59
2022/11/11 11:41:38;;;;;;;11.60;5.50;;;;;;;12.41;76.32;102526.03;5013952;28;20762;-59
2022/11/11 11:44:25;;;;;;;10.48;5.50;;;;;;;12.63;76.00;102534.78;5014706;28;20050;-58
2022/11/11 11:47:48;;;;;;;8.77;5.22;;;;;;;12.55;76.13;102529.88;5015129;28;20050;-59
2022/11/11 11:51:19;;;;;;;16.35;5.55;;;;;;;12.56;75.71;102522.38;5003054;28;20041;-58
2022/11/11 11:54:13;;;;;;;;;;;;;;;12.12;77.48;102517.56;5004612;28;20359;-60
2022/11/11 11:57:03;;;;;;;13.40;6.03;;;;;;;12.35;76.99;102511.41;5008704;28;20312;-56
2022/11/11 12:00:05;;;;;;;24.15;13.13;;;;;;;12.55;76.70;102506.91;5010682;28;20050;-53
2022/11/11 12:02:57;;;;;;;12.60;6.03;;;;;;;12.65;76.13;102516.00;5009038;28;20403;-56
2022/11/11 12:05:48;;;;;;;10.52;5.88;;;;;;;12.57;75.78;102513.78;5012320;28;20050;-58
2022/11/11 12:08:56;;;;;;;12.40;5.80;;;;;;;12.49;75.72;102506.09;5013658;28;20501;-56
2022/11/11 12:12:01;;;;;;;12.82;6.07;;;;;;;12.42;76.14;102511.09;5013766;28;20050;-59
2022/11/11 12:15:22;;;;;;;17.77;6.43;;;;;;;12.55;76.20;102507.75;4994165;28;20072;-58
2022/11/11 12:18:45;;;;;;;10.00;5.70;;;;;;;12.63;75.87;102500.78;4993882;28;20058;-57
2022/11/11 12:21:47;;;;;;;11.35;5.57;;;;;;;12.61;76.00;102500.22;5009078;28;20049;-57
2022/11/11 12:24:51;;;;;;;13.23;6.30;;;;;;;12.57;76.00;102497.22;5004646;28;20064;-53
2022/11/11 12:27:58;;;;;;;14.60;6.13;;;;;;;12.74;76.33;102496.88;5006544;28;20042;-58
2022/11/11 12:30:51;;;;;;;16.27;6.50;;;;;;;12.97;75.65;102493.41;4993333;28;20065;-57
2022/11/11 12:33:37;;;;;;;10.98;6.80;;;;;;;13.01;74.75;102483.41;5004938;28;20049;-59
2022/11/11 12:36:58;;;;;;;19.17;6.90;;;;;;;13.18;73.92;102481.13;5006907;28;20053;-59
2022/11/11 12:40:19;;;;;;;18.55;6.55;;;;;;;13.15;73.66;102477.00;4988134;28;20053;-62
2022/11/11 12:43:20;;;;;;;14.02;6.70;;;;;;;12.99;74.28;102483.72;5007155;28;20477;-57
2022/11/11 12:46:22;;;;;;;10.88;6.85;;;;;;;12.86;74.93;102475.22;5009231;28;20776;-59
2022/11/11 12:49:29;;;;;;;11.88;6.38;;;;;;;13.08;74.33;102468.19;5010451;28;20624;-59
2022/11/11 12:52:24;;;;;;;15.18;6.78;;;;;;;12.93;74.62;102468.28;5011910;28;20050;-61
2022/11/11 12:55:28;;;;;;;16.23;10.65;;;;;;;13.09;74.55;102455.19;5006953;28;20053;-59
2022/11/11 12:58:26;;;;;;;14.90;8.10;;;;;;;13.13;74.49;102456.25;5012912;28;20061;-60
2022/11/11 13:01:37;;;;;;;11.50;6.50;;;;;;;13.15;74.16;102448.50;5009700;28;20046;-61
2022/11/11 13:04:34;;;;;;;11.93;6.90;;;;;;;13.24;73.96;102439.28;5007743;28;20124;-58
2022/11/11 13:07:58;;;;;;;12.65;6.38;;;;;;;13.23;74.17;102429.31;5006499;28;20053;-60
2022/11/11 13:10:52;;;;;;;13.48;7.18;;;;;;;13.22;75.34;102435.97;5006933;28;20053;-61
2022/11/11 13:14:05;;;;;;;15.27;6.40;;;;;;;14.14;85.66;102433.94;5007606;28;20050;-61
2022/11/11 13:16:52;;;;;;;17.67;7.68;;;;;;;14.39;82.65;102430.88;5005551;28;20065;-63
2022/11/11 13:19:45;;;;;;;14.05;6.50;;;;;;;14.63;77.03;102428.88;4995413;28;20397;-62
2022/11/11 13:22:31;;;;;;;10.82;6.20;;;;;;;14.28;72.36;102430.19;5007878;28;20082;-61
2022/11/11 13:25:22;;;;;;;13.98;6.32;;;;;;;14.26;72.07;102414.97;5006986;28;20050;-61
2022/11/11 13:28:18;;;;;;;15.02;6.93;;;;;;;14.15;71.26;102425.34;5006599;28;20049;-63
2022/11/11 13:31:30;;;;;;;11.88;6.13;;;;;;;13.97;72.31;102412.25;5005999;28;20050;-56
2022/11/11 13:34:16;;;;;;;12.40;6.18;;;;;;;14.05;72.87;102416.31;5005554;28;20062;-57
2022/11/11 13:37:04;;;;;;;11.48;6.40;;;;;;;14.12;71.95;102419.56;5005200;28;20053;-60
2022/11/11 13:39:51;;;;;;;11.98;6.05;;;;;;;14.10;72.19;102416.25;5012849;28;20038;-61
2022/11/11 13:42:48;;;;;;;9.93;5.75;;;;;;;14.17;71.44;102412.00;5012087;28;20045;-61
2022/11/11 13:45:59;;;;;;;14.10;5.80;;;;;;;14.17;70.91;102413.94;4995849;28;20050;-63
2022/11/11 13:49:47;;;;;;;19.35;6.05;;;;;;;14.21;71.02;102409.47;5009477;28;20498;-59
2022/11/11 13:53:48;;;;;;;10.82;5.80;;;;;;;14.31;70.38;102396.31;5012049;28;20072;-62
2022/11/11 13:56:47;;;;;;;15.10;5.47;;;;;;;14.51;70.79;102395.22;5001464;28;20058;-61
2022/11/11 14:00:21;;;;;;;12.70;5.15;;;;;;;14.49;70.09;102394.69;5014134;28;20045;-61
2022/11/11 14:04:13;;;;;;;15.30;6.10;;;;;;;14.50;70.14;102382.50;5011072;28;20045;-68
2022/11/11 14:07:08;;;;;;;14.18;5.65;;;;;;;14.68;69.83;102378.88;5008942;28;20042;-60
2022/11/11 14:10:01;;;;;;;14.50;6.10;;;;;;;14.80;69.24;102379.25;5012498;28;20380;-60
2022/11/11 14:13:11;;;;;;;13.63;5.82;;;;;;;14.83;69.05;102377.81;4985364;28;20056;-60
2022/11/11 14:15:57;;;;;;;14.38;5.57;;;;;;;14.75;68.17;102373.78;5012505;28;20625;-58
2022/11/11 14:18:43;;;;;;;10.20;5.70;;;;;;;14.69;68.85;102380.53;5011194;28;20042;-60
2022/11/11 14:21:53;;;;;;;12.27;5.57;;;;;;;14.78;68.38;102383.44;5012631;28;20066;-61
2022/11/11 14:24:45;;;;;;;12.00;5.95;;;;;;;14.48;69.57;102379.19;5009857;28;20054;-60
2022/11/11 14:27:31;;;;;;;12.93;5.75;;;;;;;14.71;69.32;102372.75;4997105;28;20512;-59
2022/11/11 14:30:36;;;;;;;10.65;5.85;;;;;;;14.68;68.67;102368.59;5008869;28;20050;-60